sensor_id;sensor_type;location;lat;lon;timestamp;P1;durP1;ratioP1;P2;durP2;ratioP2
72105;SDS011;59975;47.646;18.318;2023-04-25T00:02:24;4.75;;;3.08;;
72105;SDS011;59975;47.646;18.318;2023-04-25T00:04:50;4.83;;;3.03;;
72105;SDS011;59975;47.646;18.318;2023-04-25T00:07:15;5.33;;;3.50;;
72105;SDS011;59975;47.646;18.318;2023-04-25T00:09:41;4.00;;;2.70;;
72105;SDS011;59975;47.646;18.318;2023-04-25T00:12:07;6.13;;;3.00;;
72105;SDS011;59975;47.646;18.318;2023-04-25T00:14:33;5.93;;;2.80;;
72105;SDS011;59975;47.646;18.318;2023-04-25T00:17:01;5.43;;;2.63;;
72105;SDS011;59975;47.646;18.318;2023-04-25T00:19:28;4.78;;;2.80;;
72105;SDS011;59975;47.646;18.318;2023-04-25T00:21:56;3.47;;;2.20;;
72105;SDS011;59975;47.646;18.318;2023-04-25T00:24:22;3.22;;;2.40;;
72105;SDS011;59975;47.646;18.318;2023-04-25T00:26:47;3.45;;;2.30;;
72105;SDS011;59975;47.646;18.318;2023-04-25T00:29:13;3.43;;;2.10;;
72105;SDS011;59975;47.646;18.318;2023-04-25T00:31:38;2.67;;;2.03;;
72105;SDS011;59975;47.646;18.318;2023-04-25T00:34:05;3.05;;;1.88;;
72105;SDS011;59975;47.646;18.318;2023-04-25T00:36:31;5.03;;;2.17;;
72105;SDS011;59975;47.646;18.318;2023-04-25T00:38:57;3.17;;;2.22;;
72105;SDS011;59975;47.646;18.318;2023-04-25T00:41:22;5.47;;;2.23;;
72105;SDS011;59975;47.646;18.318;2023-04-25T00:43:50;3.05;;;2.10;;
72105;SDS011;59975;47.646;18.318;2023-04-25T00:46:16;3.13;;;2.10;;
72105;SDS011;59975;47.646;18.318;2023-04-25T00:48:42;3.10;;;1.83;;
72105;SDS011;59975;47.646;18.318;2023-04-25T00:51:07;5.57;;;1.70;;
72105;SDS011;59975;47.646;18.318;2023-04-25T00:53:38;4.55;;;1.98;;
72105;SDS011;59975;47.646;18.318;2023-04-25T00:56:04;2.65;;;1.90;;
72105;SDS011;59975;47.646;18.318;2023-04-25T00:58:30;2.30;;;1.70;;
72105;SDS011;59975;47.646;18.318;2023-04-25T01:00:56;4.10;;;1.80;;
72105;SDS011;59975;47.646;18.318;2023-04-25T01:03:22;3.55;;;1.52;;
72105;SDS011;59975;47.646;18.318;2023-04-25T01:05:49;3.65;;;1.92;;
72105;SDS011;59975;47.646;18.318;2023-04-25T01:08:15;2.33;;;1.88;;
72105;SDS011;59975;47.646;18.318;2023-04-25T01:10:41;3.67;;;2.08;;
72105;SDS011;59975;47.646;18.318;2023-04-25T01:13:06;3.43;;;1.93;;
72105;SDS011;59975;47.646;18.318;2023-04-25T01:15:32;5.88;;;1.83;;
72105;SDS011;59975;47.646;18.318;2023-04-25T01:17:58;2.95;;;2.00;;
72105;SDS011;59975;47.646;18.318;2023-04-25T01:20:25;3.60;;;1.52;;
72105;SDS011;59975;47.646;18.318;2023-04-25T01:22:53;2.60;;;1.80;;
72105;SDS011;59975;47.646;18.318;2023-04-25T01:25:20;2.85;;;1.40;;
72105;SDS011;59975;47.646;18.318;2023-04-25T01:27:46;3.15;;;1.90;;
72105;SDS011;59975;47.646;18.318;2023-04-25T01:30:12;3.63;;;1.90;;
72105;SDS011;59975;47.646;18.318;2023-04-25T01:32:38;3.63;;;1.60;;
72105;SDS011;59975;47.646;18.318;2023-04-25T01:35:10;2.55;;;1.77;;
72105;SDS011;59975;47.646;18.318;2023-04-25T01:37:37;5.30;;;1.80;;
72105;SDS011;59975;47.646;18.318;2023-04-25T01:40:03;2.78;;;1.52;;
72105;SDS011;59975;47.646;18.318;2023-04-25T01:42:33;4.80;;;1.70;;
72105;SDS011;59975;47.646;18.318;2023-04-25T01:45:00;5.22;;;2.13;;
72105;SDS011;59975;47.646;18.318;2023-04-25T01:47:26;2.30;;;1.70;;
72105;SDS011;59975;47.646;18.318;2023-04-25T01:49:51;3.60;;;1.80;;
72105;SDS011;59975;47.646;18.318;2023-04-25T01:52:17;2.70;;;1.70;;
72105;SDS011;59975;47.646;18.318;2023-04-25T01:54:43;2.97;;;1.73;;
72105;SDS011;59975;47.646;18.318;2023-04-25T01:57:13;3.25;;;2.00;;
72105;SDS011;59975;47.646;18.318;2023-04-25T01:59:39;2.97;;;2.10;;
72105;SDS011;59975;47.646;18.318;2023-04-25T02:02:05;3.67;;;2.30;;
72105;SDS011;59975;47.646;18.318;2023-04-25T02:04:37;2.85;;;1.85;;
72105;SDS011;59975;47.646;18.318;2023-04-25T02:07:03;2.53;;;1.60;;
72105;SDS011;59975;47.646;18.318;2023-04-25T02:09:29;4.13;;;2.20;;
72105;SDS011;59975;47.646;18.318;2023-04-25T02:11:54;2.95;;;2.00;;
72105;SDS011;59975;47.646;18.318;2023-04-25T02:14:20;4.13;;;2.13;;
72105;SDS011;59975;47.646;18.318;2023-04-25T02:16:45;3.40;;;2.10;;
72105;SDS011;59975;47.646;18.318;2023-04-25T02:19:11;2.95;;;2.20;;
72105;SDS011;59975;47.646;18.318;2023-04-25T02:21:36;2.70;;;1.80;;
72105;SDS011;59975;47.646;18.318;2023-04-25T02:24:02;3.55;;;2.38;;
72105;SDS011;59975;47.646;18.318;2023-04-25T02:26:28;3.65;;;2.20;;
72105;SDS011;59975;47.646;18.318;2023-04-25T02:28:55;3.30;;;2.13;;
72105;SDS011;59975;47.646;18.318;2023-04-25T02:31:21;3.58;;;2.00;;
72105;SDS011;59975;47.646;18.318;2023-04-25T02:33:47;2.87;;;1.50;;
72105;SDS011;59975;47.646;18.318;2023-04-25T02:36:12;2.65;;;1.80;;
72105;SDS011;59975;47.646;18.318;2023-04-25T02:38:38;4.60;;;2.03;;
72105;SDS011;59975;47.646;18.318;2023-04-25T02:41:04;3.83;;;1.70;;
72105;SDS011;59975;47.646;18.318;2023-04-25T02:43:30;4.77;;;1.43;;
72105;SDS011;59975;47.646;18.318;2023-04-25T02:45:55;3.60;;;1.80;;
72105;SDS011;59975;47.646;18.318;2023-04-25T02:48:21;3.58;;;2.03;;
72105;SDS011;59975;47.646;18.318;2023-04-25T02:50:46;3.47;;;1.53;;
72105;SDS011;59975;47.646;18.318;2023-04-25T02:53:12;2.73;;;1.77;;
72105;SDS011;59975;47.646;18.318;2023-04-25T02:55:37;3.97;;;2.03;;
72105;SDS011;59975;47.646;18.318;2023-04-25T02:58:03;2.47;;;1.83;;
72105;SDS011;59975;47.646;18.318;2023-04-25T03:00:29;3.08;;;1.92;;
72105;SDS011;59975;47.646;18.318;2023-04-25T03:02:54;4.80;;;2.13;;
72105;SDS011;59975;47.646;18.318;2023-04-25T03:05:20;3.60;;;1.85;;
72105;SDS011;59975;47.646;18.318;2023-04-25T03:07:46;3.27;;;1.70;;
72105;SDS011;59975;47.646;18.318;2023-04-25T03:10:11;2.40;;;1.43;;
72105;SDS011;59975;47.646;18.318;2023-04-25T03:12:37;2.33;;;1.50;;
72105;SDS011;59975;47.646;18.318;2023-04-25T03:15:03;2.88;;;2.28;;
72105;SDS011;59975;47.646;18.318;2023-04-25T03:17:29;2.53;;;1.90;;
72105;SDS011;59975;47.646;18.318;2023-04-25T03:19:55;2.65;;;1.80;;
72105;SDS011;59975;47.646;18.318;2023-04-25T03:22:20;4.77;;;2.03;;
72105;SDS011;59975;47.646;18.318;2023-04-25T03:24:46;6.43;;;2.00;;
72105;SDS011;59975;47.646;18.318;2023-04-25T03:27:12;3.30;;;1.87;;
72105;SDS011;59975;47.646;18.318;2023-04-25T03:29:37;3.00;;;2.22;;
72105;SDS011;59975;47.646;18.318;2023-04-25T03:32:03;3.28;;;1.98;;
72105;SDS011;59975;47.646;18.318;2023-04-25T03:34:29;4.60;;;2.20;;
72105;SDS011;59975;47.646;18.318;2023-04-25T03:36:54;5.63;;;1.87;;
72105;SDS011;59975;47.646;18.318;2023-04-25T03:39:20;3.47;;;2.47;;
72105;SDS011;59975;47.646;18.318;2023-04-25T03:41:45;4.30;;;2.50;;
72105;SDS011;59975;47.646;18.318;2023-04-25T03:44:11;4.95;;;2.45;;
72105;SDS011;59975;47.646;18.318;2023-04-25T03:46:37;3.83;;;2.23;;
72105;SDS011;59975;47.646;18.318;2023-04-25T03:49:02;3.60;;;2.10;;
72105;SDS011;59975;47.646;18.318;2023-04-25T03:51:28;4.35;;;2.25;;
72105;SDS011;59975;47.646;18.318;2023-04-25T03:53:54;4.53;;;2.70;;
72105;SDS011;59975;47.646;18.318;2023-04-25T03:56:19;3.80;;;2.17;;
72105;SDS011;59975;47.646;18.318;2023-04-25T03:58:45;4.77;;;2.63;;
72105;SDS011;59975;47.646;18.318;2023-04-25T04:01:11;4.47;;;2.15;;
72105;SDS011;59975;47.646;18.318;2023-04-25T04:03:36;4.33;;;2.40;;
72105;SDS011;59975;47.646;18.318;2023-04-25T04:06:03;3.27;;;2.10;;
72105;SDS011;59975;47.646;18.318;2023-04-25T04:08:30;3.10;;;2.30;;
72105;SDS011;59975;47.646;18.318;2023-04-25T04:10:56;3.58;;;2.20;;
72105;SDS011;59975;47.646;18.318;2023-04-25T04:13:23;3.63;;;2.20;;
72105;SDS011;59975;47.646;18.318;2023-04-25T04:15:50;4.15;;;2.38;;
72105;SDS011;59975;47.646;18.318;2023-04-25T04:18:15;3.75;;;1.92;;
72105;SDS011;59975;47.646;18.318;2023-04-25T04:20:41;4.23;;;2.60;;
72105;SDS011;59975;47.646;18.318;2023-04-25T04:23:06;4.67;;;2.47;;
72105;SDS011;59975;47.646;18.318;2023-04-25T04:25:32;5.05;;;2.72;;
72105;SDS011;59975;47.646;18.318;2023-04-25T04:27:57;5.10;;;2.67;;
72105;SDS011;59975;47.646;18.318;2023-04-25T04:30:24;5.80;;;2.53;;
72105;SDS011;59975;47.646;18.318;2023-04-25T04:32:50;4.28;;;2.67;;
72105;SDS011;59975;47.646;18.318;2023-04-25T04:35:16;5.45;;;2.40;;
72105;SDS011;59975;47.646;18.318;2023-04-25T04:37:42;4.07;;;2.70;;
72105;SDS011;59975;47.646;18.318;2023-04-25T04:40:09;3.95;;;2.70;;
72105;SDS011;59975;47.646;18.318;2023-04-25T04:42:34;6.20;;;2.70;;
72105;SDS011;59975;47.646;18.318;2023-04-25T04:45:01;3.95;;;2.70;;
72105;SDS011;59975;47.646;18.318;2023-04-25T04:47:28;4.93;;;2.72;;
72105;SDS011;59975;47.646;18.318;2023-04-25T04:49:56;4.10;;;3.00;;
72105;SDS011;59975;47.646;18.318;2023-04-25T04:52:22;5.63;;;2.28;;
72105;SDS011;59975;47.646;18.318;2023-04-25T04:54:47;5.40;;;2.45;;
72105;SDS011;59975;47.646;18.318;2023-04-25T04:57:13;4.93;;;2.33;;
72105;SDS011;59975;47.646;18.318;2023-04-25T04:59:38;3.53;;;2.53;;
72105;SDS011;59975;47.646;18.318;2023-04-25T05:02:04;5.00;;;2.80;;
72105;SDS011;59975;47.646;18.318;2023-04-25T05:04:29;6.50;;;2.53;;
72105;SDS011;59975;47.646;18.318;2023-04-25T05:06:55;4.90;;;2.63;;
72105;SDS011;59975;47.646;18.318;2023-04-25T05:09:20;4.27;;;2.33;;
72105;SDS011;59975;47.646;18.318;2023-04-25T05:11:50;4.35;;;2.55;;
72105;SDS011;59975;47.646;18.318;2023-04-25T05:14:16;3.90;;;2.67;;
72105;SDS011;59975;47.646;18.318;2023-04-25T05:16:42;3.28;;;2.33;;
72105;SDS011;59975;47.646;18.318;2023-04-25T05:19:09;4.17;;;2.40;;
72105;SDS011;59975;47.646;18.318;2023-04-25T05:21:34;5.05;;;3.15;;
72105;SDS011;59975;47.646;18.318;2023-04-25T05:24:00;4.20;;;2.40;;
72105;SDS011;59975;47.646;18.318;2023-04-25T05:26:26;4.50;;;2.42;;
72105;SDS011;59975;47.646;18.318;2023-04-25T05:28:56;6.45;;;2.80;;
72105;SDS011;59975;47.646;18.318;2023-04-25T05:31:28;4.10;;;2.53;;
72105;SDS011;59975;47.646;18.318;2023-04-25T05:33:53;7.90;;;2.67;;
72105;SDS011;59975;47.646;18.318;2023-04-25T05:36:19;6.67;;;3.17;;
72105;SDS011;59975;47.646;18.318;2023-04-25T05:38:45;6.80;;;3.70;;
72105;SDS011;59975;47.646;18.318;2023-04-25T05:41:11;5.72;;;3.30;;
72105;SDS011;59975;47.646;18.318;2023-04-25T05:43:37;5.73;;;3.37;;
72105;SDS011;59975;47.646;18.318;2023-04-25T05:46:25;7.63;;;3.80;;
72105;SDS011;59975;47.646;18.318;2023-04-25T05:49:08;5.60;;;3.50;;
72105;SDS011;59975;47.646;18.318;2023-04-25T05:51:33;6.87;;;3.60;;
72105;SDS011;59975;47.646;18.318;2023-04-25T05:54:25;5.05;;;3.17;;
72105;SDS011;59975;47.646;18.318;2023-04-25T06:00:16;4.97;;;3.05;;
72105;SDS011;59975;47.646;18.318;2023-04-25T06:05:44;5.70;;;2.63;;
72105;SDS011;59975;47.646;18.318;2023-04-25T06:08:10;6.30;;;3.60;;
72105;SDS011;59975;47.646;18.318;2023-04-25T06:10:36;7.35;;;3.85;;
72105;SDS011;59975;47.646;18.318;2023-04-25T06:13:03;7.90;;;3.00;;
72105;SDS011;59975;47.646;18.318;2023-04-25T06:15:32;4.95;;;3.20;;
72105;SDS011;59975;47.646;18.318;2023-04-25T06:18:06;7.30;;;3.45;;
72105;SDS011;59975;47.646;18.318;2023-04-25T06:20:31;4.03;;;2.80;;
72105;SDS011;59975;47.646;18.318;2023-04-25T06:23:06;4.72;;;2.83;;
72105;SDS011;59975;47.646;18.318;2023-04-25T06:25:40;4.80;;;3.03;;
72105;SDS011;59975;47.646;18.318;2023-04-25T06:28:17;5.60;;;2.72;;
72105;SDS011;59975;47.646;18.318;2023-04-25T06:30:53;5.95;;;3.47;;
72105;SDS011;59975;47.646;18.318;2023-04-25T06:33:30;7.73;;;3.87;;
72105;SDS011;59975;47.646;18.318;2023-04-25T06:36:15;5.88;;;3.13;;
72105;SDS011;59975;47.646;18.318;2023-04-25T06:38:44;8.43;;;3.80;;
72105;SDS011;59975;47.646;18.318;2023-04-25T06:41:23;5.68;;;3.65;;
72105;SDS011;59975;47.646;18.318;2023-04-25T06:50:24;9.38;;;3.95;;
72105;SDS011;59975;47.646;18.318;2023-04-25T06:52:52;7.63;;;4.35;;
72105;SDS011;59975;47.646;18.318;2023-04-25T06:55:18;6.70;;;3.60;;
72105;SDS011;59975;47.646;18.318;2023-04-25T06:57:44;6.00;;;3.33;;
72105;SDS011;59975;47.646;18.318;2023-04-25T07:00:13;5.72;;;3.58;;
72105;SDS011;59975;47.646;18.318;2023-04-25T07:02:52;6.80;;;3.47;;
72105;SDS011;59975;47.646;18.318;2023-04-25T07:05:24;10.43;;;3.35;;
72105;SDS011;59975;47.646;18.318;2023-04-25T07:07:55;4.97;;;3.50;;
72105;SDS011;59975;47.646;18.318;2023-04-25T07:10:31;5.87;;;2.80;;
72105;SDS011;59975;47.646;18.318;2023-04-25T07:13:00;6.47;;;3.20;;
72105;SDS011;59975;47.646;18.318;2023-04-25T07:15:31;5.07;;;3.15;;
72105;SDS011;59975;47.646;18.318;2023-04-25T07:17:56;5.50;;;3.25;;
72105;SDS011;59975;47.646;18.318;2023-04-25T07:20:30;4.65;;;3.13;;
72105;SDS011;59975;47.646;18.318;2023-04-25T07:23:05;4.50;;;2.77;;
72105;SDS011;59975;47.646;18.318;2023-04-25T07:25:34;5.53;;;3.00;;
72105;SDS011;59975;47.646;18.318;2023-04-25T07:28:00;4.32;;;3.00;;
72105;SDS011;59975;47.646;18.318;2023-04-25T07:33:46;5.10;;;3.47;;
72105;SDS011;59975;47.646;18.318;2023-04-25T07:36:13;4.87;;;3.23;;
72105;SDS011;59975;47.646;18.318;2023-04-25T07:38:42;4.72;;;2.78;;
72105;SDS011;59975;47.646;18.318;2023-04-25T07:41:10;5.35;;;3.17;;
72105;SDS011;59975;47.646;18.318;2023-04-25T07:43:37;5.37;;;3.13;;
72105;SDS011;59975;47.646;18.318;2023-04-25T07:46:06;5.68;;;2.92;;
72105;SDS011;59975;47.646;18.318;2023-04-25T07:48:34;3.80;;;2.53;;
72105;SDS011;59975;47.646;18.318;2023-04-25T07:51:00;6.57;;;3.13;;
72105;SDS011;59975;47.646;18.318;2023-04-25T07:53:27;5.73;;;2.83;;
72105;SDS011;59975;47.646;18.318;2023-04-25T07:55:54;5.13;;;3.00;;
72105;SDS011;59975;47.646;18.318;2023-04-25T07:58:24;6.90;;;3.13;;
72105;SDS011;59975;47.646;18.318;2023-04-25T08:00:51;8.00;;;2.92;;
72105;SDS011;59975;47.646;18.318;2023-04-25T08:03:19;7.03;;;3.30;;
72105;SDS011;59975;47.646;18.318;2023-04-25T08:05:47;4.95;;;3.25;;
72105;SDS011;59975;47.646;18.318;2023-04-25T08:08:13;3.47;;;2.38;;
72105;SDS011;59975;47.646;18.318;2023-04-25T08:10:41;4.43;;;3.13;;
72105;SDS011;59975;47.646;18.318;2023-04-25T08:19:50;6.35;;;3.50;;
72105;SDS011;59975;47.646;18.318;2023-04-25T08:22:47;5.80;;;3.20;;
72105;SDS011;59975;47.646;18.318;2023-04-25T08:25:20;9.35;;;3.50;;
72105;SDS011;59975;47.646;18.318;2023-04-25T08:27:46;4.85;;;3.35;;
72105;SDS011;59975;47.646;18.318;2023-04-25T08:30:12;7.72;;;3.45;;
72105;SDS011;59975;47.646;18.318;2023-04-25T08:32:41;4.30;;;2.90;;
72105;SDS011;59975;47.646;18.318;2023-04-25T08:35:10;4.10;;;2.63;;
72105;SDS011;59975;47.646;18.318;2023-04-25T08:37:38;4.90;;;2.75;;
72105;SDS011;59975;47.646;18.318;2023-04-25T08:40:04;3.42;;;2.50;;
72105;SDS011;59975;47.646;18.318;2023-04-25T08:42:39;5.05;;;2.88;;
72105;SDS011;59975;47.646;18.318;2023-04-25T08:45:07;4.53;;;2.72;;
72105;SDS011;59975;47.646;18.318;2023-04-25T08:47:37;5.03;;;2.67;;
72105;SDS011;59975;47.646;18.318;2023-04-25T08:50:07;4.35;;;2.33;;
72105;SDS011;59975;47.646;18.318;2023-04-25T08:52:45;2.60;;;2.20;;
72105;SDS011;59975;47.646;18.318;2023-04-25T08:55:13;4.80;;;2.40;;
72105;SDS011;59975;47.646;18.318;2023-04-25T08:57:57;3.67;;;2.20;;
72105;SDS011;59975;47.646;18.318;2023-04-25T09:00:31;6.03;;;3.47;;
72105;SDS011;59975;47.646;18.318;2023-04-25T09:03:26;6.03;;;2.70;;
72105;SDS011;59975;47.646;18.318;2023-04-25T09:10:00;4.40;;;2.63;;
72105;SDS011;59975;47.646;18.318;2023-04-25T09:12:28;2.95;;;2.20;;
72105;SDS011;59975;47.646;18.318;2023-04-25T09:15:18;4.03;;;2.40;;
72105;SDS011;59975;47.646;18.318;2023-04-25T09:17:44;4.55;;;2.67;;
72105;SDS011;59975;47.646;18.318;2023-04-25T09:20:12;4.43;;;2.78;;
72105;SDS011;59975;47.646;18.318;2023-04-25T09:22:38;3.15;;;2.63;;
72105;SDS011;59975;47.646;18.318;2023-04-25T09:25:11;3.63;;;2.90;;
72105;SDS011;59975;47.646;18.318;2023-04-25T09:27:49;6.65;;;3.20;;
72105;SDS011;59975;47.646;18.318;2023-04-25T09:30:17;4.50;;;2.70;;
72105;SDS011;59975;47.646;18.318;2023-04-25T09:32:43;5.53;;;3.40;;
72105;SDS011;59975;47.646;18.318;2023-04-25T09:35:09;4.50;;;3.10;;
72105;SDS011;59975;47.646;18.318;2023-04-25T09:37:35;4.18;;;2.95;;
72105;SDS011;59975;47.646;18.318;2023-04-25T09:40:03;3.97;;;3.13;;
72105;SDS011;59975;47.646;18.318;2023-04-25T09:42:32;4.95;;;3.70;;
72105;SDS011;59975;47.646;18.318;2023-04-25T09:45:02;4.68;;;3.50;;
72105;SDS011;59975;47.646;18.318;2023-04-25T09:47:29;5.40;;;3.55;;
72105;SDS011;59975;47.646;18.318;2023-04-25T09:50:13;7.20;;;3.23;;
72105;SDS011;59975;47.646;18.318;2023-04-25T09:52:45;5.35;;;3.38;;
72105;SDS011;59975;47.646;18.318;2023-04-25T09:55:10;3.97;;;3.08;;
72105;SDS011;59975;47.646;18.318;2023-04-25T09:57:36;5.40;;;3.58;;
72105;SDS011;59975;47.646;18.318;2023-04-25T10:00:06;5.70;;;3.57;;
72105;SDS011;59975;47.646;18.318;2023-04-25T10:02:37;4.22;;;3.25;;
72105;SDS011;59975;47.646;18.318;2023-04-25T10:05:07;5.68;;;3.53;;
72105;SDS011;59975;47.646;18.318;2023-04-25T10:07:33;4.30;;;3.10;;
72105;SDS011;59975;47.646;18.318;2023-04-25T10:10:03;4.55;;;3.42;;
72105;SDS011;59975;47.646;18.318;2023-04-25T10:12:32;7.37;;;4.17;;
72105;SDS011;59975;47.646;18.318;2023-04-25T10:14:59;5.85;;;3.70;;
72105;SDS011;59975;47.646;18.318;2023-04-25T10:17:25;5.07;;;3.80;;
72105;SDS011;59975;47.646;18.318;2023-04-25T10:19:52;4.88;;;3.40;;
72105;SDS011;59975;47.646;18.318;2023-04-25T10:22:39;6.28;;;3.00;;
72105;SDS011;59975;47.646;18.318;2023-04-25T10:25:09;5.57;;;2.57;;
72105;SDS011;59975;47.646;18.318;2023-04-25T10:27:36;3.65;;;2.85;;
72105;SDS011;59975;47.646;18.318;2023-04-25T10:30:09;4.35;;;2.80;;
72105;SDS011;59975;47.646;18.318;2023-04-25T10:33:09;3.42;;;2.60;;
72105;SDS011;59975;47.646;18.318;2023-04-25T10:36:23;3.65;;;2.50;;
72105;SDS011;59975;47.646;18.318;2023-04-25T10:38:50;3.50;;;2.43;;
72105;SDS011;59975;47.646;18.318;2023-04-25T10:41:17;3.40;;;2.72;;
72105;SDS011;59975;47.646;18.318;2023-04-25T10:43:44;4.45;;;2.78;;
72105;SDS011;59975;47.646;18.318;2023-04-25T10:48:50;4.15;;;2.53;;
72105;SDS011;59975;47.646;18.318;2023-04-25T10:51:17;4.10;;;3.03;;
72105;SDS011;59975;47.646;18.318;2023-04-25T10:53:45;4.43;;;2.17;;
72105;SDS011;59975;47.646;18.318;2023-04-25T10:58:45;3.67;;;2.15;;
72105;SDS011;59975;47.646;18.318;2023-04-25T11:01:14;4.25;;;2.33;;
72105;SDS011;59975;47.646;18.318;2023-04-25T11:03:44;4.23;;;2.00;;
72105;SDS011;59975;47.646;18.318;2023-04-25T11:08:49;4.70;;;2.85;;
72105;SDS011;59975;47.646;18.318;2023-04-25T11:11:16;9.53;;;2.53;;
72105;SDS011;59975;47.646;18.318;2023-04-25T11:13:43;4.22;;;2.50;;
72105;SDS011;59975;47.646;18.318;2023-04-25T11:16:09;3.83;;;2.35;;
72105;SDS011;59975;47.646;18.318;2023-04-25T11:18:35;5.37;;;2.77;;
72105;SDS011;59975;47.646;18.318;2023-04-25T11:21:02;6.70;;;3.00;;
72105;SDS011;59975;47.646;18.318;2023-04-25T11:23:28;3.08;;;2.53;;
72105;SDS011;59975;47.646;18.318;2023-04-25T11:25:57;4.57;;;2.33;;
72105;SDS011;59975;47.646;18.318;2023-04-25T11:28:25;4.65;;;3.00;;
72105;SDS011;59975;47.646;18.318;2023-04-25T11:30:51;3.55;;;2.17;;
72105;SDS011;59975;47.646;18.318;2023-04-25T11:33:17;3.25;;;2.53;;
72105;SDS011;59975;47.646;18.318;2023-04-25T11:35:43;3.47;;;2.10;;
72105;SDS011;59975;47.646;18.318;2023-04-25T11:38:08;3.03;;;2.17;;
72105;SDS011;59975;47.646;18.318;2023-04-25T11:40:35;2.90;;;1.33;;
72105;SDS011;59975;47.646;18.318;2023-04-25T11:43:01;4.27;;;2.70;;
72105;SDS011;59975;47.646;18.318;2023-04-25T11:45:27;4.57;;;2.33;;
72105;SDS011;59975;47.646;18.318;2023-04-25T11:47:54;4.28;;;2.75;;
72105;SDS011;59975;47.646;18.318;2023-04-25T11:50:20;4.57;;;2.17;;
72105;SDS011;59975;47.646;18.318;2023-04-25T11:52:46;5.30;;;2.13;;
72105;SDS011;59975;47.646;18.318;2023-04-25T11:55:14;2.85;;;1.98;;
72105;SDS011;59975;47.646;18.318;2023-04-25T11:57:41;4.57;;;2.27;;
72105;SDS011;59975;47.646;18.318;2023-04-25T12:00:11;3.22;;;1.83;;
72105;SDS011;59975;47.646;18.318;2023-04-25T12:02:42;6.72;;;2.38;;
72105;SDS011;59975;47.646;18.318;2023-04-25T12:05:09;3.60;;;2.00;;
72105;SDS011;59975;47.646;18.318;2023-04-25T12:07:37;3.88;;;2.70;;
72105;SDS011;59975;47.646;18.318;2023-04-25T12:10:04;3.60;;;2.70;;
72105;SDS011;59975;47.646;18.318;2023-04-25T12:12:32;4.05;;;2.70;;
72105;SDS011;59975;47.646;18.318;2023-04-25T12:15:07;6.13;;;2.45;;
72105;SDS011;59975;47.646;18.318;2023-04-25T12:17:50;5.20;;;3.10;;
72105;SDS011;59975;47.646;18.318;2023-04-25T12:20:18;6.25;;;2.75;;
72105;SDS011;59975;47.646;18.318;2023-04-25T12:22:45;3.50;;;2.73;;
72105;SDS011;59975;47.646;18.318;2023-04-25T12:28:19;4.53;;;2.60;;
72105;SDS011;59975;47.646;18.318;2023-04-25T12:33:26;4.40;;;2.50;;
72105;SDS011;59975;47.646;18.318;2023-04-25T12:35:53;3.60;;;2.27;;
72105;SDS011;59975;47.646;18.318;2023-04-25T12:40:55;4.82;;;2.47;;
72105;SDS011;59975;47.646;18.318;2023-04-25T12:43:22;3.60;;;2.33;;
72105;SDS011;59975;47.646;18.318;2023-04-25T12:45:55;5.05;;;2.60;;
72105;SDS011;59975;47.646;18.318;2023-04-25T12:48:21;3.07;;;2.40;;
72105;SDS011;59975;47.646;18.318;2023-04-25T12:50:48;3.42;;;2.17;;
72105;SDS011;59975;47.646;18.318;2023-04-25T12:53:15;3.25;;;2.28;;
72105;SDS011;59975;47.646;18.318;2023-04-25T12:55:41;5.13;;;3.10;;
72105;SDS011;59975;47.646;18.318;2023-04-25T12:58:07;8.97;;;3.73;;
72105;SDS011;59975;47.646;18.318;2023-04-25T13:00:32;4.25;;;2.67;;
72105;SDS011;59975;47.646;18.318;2023-04-25T13:02:58;5.30;;;2.90;;
72105;SDS011;59975;47.646;18.318;2023-04-25T13:05:24;3.83;;;2.67;;
72105;SDS011;59975;47.646;18.318;2023-04-25T13:07:50;4.13;;;2.63;;
72105;SDS011;59975;47.646;18.318;2023-04-25T13:10:16;3.45;;;2.47;;
72105;SDS011;59975;47.646;18.318;2023-04-25T13:12:42;5.30;;;3.25;;
72105;SDS011;59975;47.646;18.318;2023-04-25T13:15:08;4.28;;;3.05;;
72105;SDS011;59975;47.646;18.318;2023-04-25T13:17:36;4.20;;;2.60;;
72105;SDS011;59975;47.646;18.318;2023-04-25T13:20:03;3.78;;;2.50;;
72105;SDS011;59975;47.646;18.318;2023-04-25T13:22:34;4.68;;;2.85;;
72105;SDS011;59975;47.646;18.318;2023-04-25T13:25:02;4.75;;;3.03;;
72105;SDS011;59975;47.646;18.318;2023-04-25T13:27:28;3.75;;;2.50;;
72105;SDS011;59975;47.646;18.318;2023-04-25T13:29:53;4.70;;;2.43;;
72105;SDS011;59975;47.646;18.318;2023-04-25T13:32:19;5.35;;;2.50;;
72105;SDS011;59975;47.646;18.318;2023-04-25T13:34:45;4.53;;;2.80;;
72105;SDS011;59975;47.646;18.318;2023-04-25T13:37:10;4.38;;;2.50;;
72105;SDS011;59975;47.646;18.318;2023-04-25T13:39:36;6.97;;;3.40;;
72105;SDS011;59975;47.646;18.318;2023-04-25T13:42:01;5.80;;;3.40;;
72105;SDS011;59975;47.646;18.318;2023-04-25T13:44:28;4.60;;;2.97;;
72105;SDS011;59975;47.646;18.318;2023-04-25T13:46:53;4.23;;;2.57;;
72105;SDS011;59975;47.646;18.318;2023-04-25T13:49:19;5.38;;;2.70;;
72105;SDS011;59975;47.646;18.318;2023-04-25T13:51:44;3.73;;;2.30;;
72105;SDS011;59975;47.646;18.318;2023-04-25T13:54:10;4.37;;;2.43;;
72105;SDS011;59975;47.646;18.318;2023-04-25T13:56:36;4.47;;;2.63;;
72105;SDS011;59975;47.646;18.318;2023-04-25T13:59:01;4.77;;;2.60;;
72105;SDS011;59975;47.646;18.318;2023-04-25T14:01:27;3.92;;;2.42;;
72105;SDS011;59975;47.646;18.318;2023-04-25T14:03:53;4.87;;;2.70;;
72105;SDS011;59975;47.646;18.318;2023-04-25T14:06:18;7.07;;;3.33;;
72105;SDS011;59975;47.646;18.318;2023-04-25T14:08:48;5.10;;;2.63;;
72105;SDS011;59975;47.646;18.318;2023-04-25T14:11:14;4.13;;;2.77;;
72105;SDS011;59975;47.646;18.318;2023-04-25T14:13:40;6.32;;;3.10;;
72105;SDS011;59975;47.646;18.318;2023-04-25T14:16:05;6.33;;;3.10;;
72105;SDS011;59975;47.646;18.318;2023-04-25T14:18:31;7.53;;;3.43;;
72105;SDS011;59975;47.646;18.318;2023-04-25T14:20:57;7.28;;;3.53;;
72105;SDS011;59975;47.646;18.318;2023-04-25T14:23:22;7.73;;;3.50;;
72105;SDS011;59975;47.646;18.318;2023-04-25T14:25:47;10.37;;;4.47;;
72105;SDS011;59975;47.646;18.318;2023-04-25T14:28:13;7.18;;;4.68;;
72105;SDS011;59975;47.646;18.318;2023-04-25T14:30:38;8.87;;;4.70;;
72105;SDS011;59975;47.646;18.318;2023-04-25T14:33:04;6.03;;;4.00;;
72105;SDS011;59975;47.646;18.318;2023-04-25T14:35:30;8.00;;;3.15;;
72105;SDS011;59975;47.646;18.318;2023-04-25T14:37:55;6.97;;;3.70;;
72105;SDS011;59975;47.646;18.318;2023-04-25T14:40:21;6.05;;;3.20;;
72105;SDS011;59975;47.646;18.318;2023-04-25T14:42:48;8.68;;;3.88;;
72105;SDS011;59975;47.646;18.318;2023-04-25T14:45:14;5.95;;;2.88;;
72105;SDS011;59975;47.646;18.318;2023-04-25T14:47:39;5.23;;;2.70;;
72105;SDS011;59975;47.646;18.318;2023-04-25T14:50:06;6.45;;;3.20;;
72105;SDS011;59975;47.646;18.318;2023-04-25T14:52:31;2.67;;;1.80;;
72105;SDS011;59975;47.646;18.318;2023-04-25T14:54:57;5.10;;;3.13;;
72105;SDS011;59975;47.646;18.318;2023-04-25T14:57:25;4.95;;;2.95;;
72105;SDS011;59975;47.646;18.318;2023-04-25T14:59:51;5.70;;;3.50;;
72105;SDS011;59975;47.646;18.318;2023-04-25T15:02:16;6.97;;;3.72;;
72105;SDS011;59975;47.646;18.318;2023-04-25T15:04:42;8.40;;;4.23;;
72105;SDS011;59975;47.646;18.318;2023-04-25T15:07:08;8.98;;;4.50;;
72105;SDS011;59975;47.646;18.318;2023-04-25T15:09:33;9.63;;;4.33;;
72105;SDS011;59975;47.646;18.318;2023-04-25T15:11:59;8.88;;;4.15;;
72105;SDS011;59975;47.646;18.318;2023-04-25T15:14:25;8.18;;;3.50;;
72105;SDS011;59975;47.646;18.318;2023-04-25T15:16:51;6.07;;;4.03;;
72105;SDS011;59975;47.646;18.318;2023-04-25T15:19:16;6.03;;;3.57;;
72105;SDS011;59975;47.646;18.318;2023-04-25T15:21:42;6.53;;;3.45;;